sensor_id;sensor_type;location;lat;lon;timestamp;temperature;humidity
22067;DHT22;72821;49.814;19.034;2023-12-20T00:02:41;21.10;20.10
22067;DHT22;72821;49.814;19.034;2023-12-20T00:07:47;20.90;20.40
22067;DHT22;72821;49.814;19.034;2023-12-20T00:12:49;20.80;20.50
22067;DHT22;72821;49.814;19.034;2023-12-20T00:17:51;20.80;20.70
22067;DHT22;72821;49.814;19.034;2023-12-20T00:22:57;20.80;20.80
22067;DHT22;72821;49.814;19.034;2023-12-20T00:28:03;20.90;20.70
22067;DHT22;72821;49.814;19.034;2023-12-20T00:33:05;21.10;20.70
22067;DHT22;72821;49.814;19.034;2023-12-20T00:38:07;20.90;20.80
22067;DHT22;72821;49.814;19.034;2023-12-20T00:43:12;21.00;20.80
22067;DHT22;72821;49.814;19.034;2023-12-20T00:48:14;21.10;20.70
22067;DHT22;72821;49.814;19.034;2023-12-20T00:53:16;21.10;20.80
22067;DHT22;72821;49.814;19.034;2023-12-20T00:58:18;21.10;21.00
22067;DHT22;72821;49.814;19.034;2023-12-20T01:03:20;21.00;20.90
22067;DHT22;72821;49.814;19.034;2023-12-20T01:08:22;20.80;21.00
22067;DHT22;72821;49.814;19.034;2023-12-20T01:13:24;20.80;20.90
22067;DHT22;72821;49.814;19.034;2023-12-20T01:18:27;20.80;21.00
22067;DHT22;72821;49.814;19.034;2023-12-20T01:23:29;20.80;20.60
22067;DHT22;72821;49.814;19.034;2023-12-20T01:28:31;20.90;20.40
22067;DHT22;72821;49.814;19.034;2023-12-20T01:33:34;20.90;20.10
22067;DHT22;72821;49.814;19.034;2023-12-20T01:38:36;20.90;19.50
22067;DHT22;72821;49.814;19.034;2023-12-20T01:43:38;20.90;19.70
22067;DHT22;72821;49.814;19.034;2023-12-20T01:48:51;21.00;20.50
22067;DHT22;72821;49.814;19.034;2023-12-20T01:53:57;21.00;20.90
22067;DHT22;72821;49.814;19.034;2023-12-20T01:59:00;21.10;20.70
22067;DHT22;72821;49.814;19.034;2023-12-20T02:04:04;20.90;19.30
22067;DHT22;72821;49.814;19.034;2023-12-20T02:09:07;20.70;19.50
22067;DHT22;72821;49.814;19.034;2023-12-20T02:14:09;20.60;19.80
22067;DHT22;72821;49.814;19.034;2023-12-20T02:19:14;20.80;20.00
22067;DHT22;72821;49.814;19.034;2023-12-20T02:24:17;20.70;19.90
22067;DHT22;72821;49.814;19.034;2023-12-20T02:29:19;20.50;20.30
22067;DHT22;72821;49.814;19.034;2023-12-20T02:34:21;20.30;20.70
22067;DHT22;72821;49.814;19.034;2023-12-20T02:39:24;20.30;20.90
22067;DHT22;72821;49.814;19.034;2023-12-20T02:44:26;20.20;21.00
22067;DHT22;72821;49.814;19.034;2023-12-20T02:49:28;20.10;21.30
22067;DHT22;72821;49.814;19.034;2023-12-20T02:54:30;20.20;21.30
22067;DHT22;72821;49.814;19.034;2023-12-20T02:59:32;20.10;21.10
22067;DHT22;72821;49.814;19.034;2023-12-20T03:04:34;20.20;21.10
22067;DHT22;72821;49.814;19.034;2023-12-20T03:09:37;20.50;20.80
22067;DHT22;72821;49.814;19.034;2023-12-20T03:14:59;20.60;20.70
22067;DHT22;72821;49.814;19.034;2023-12-20T03:20:01;20.60;20.70
22067;DHT22;72821;49.814;19.034;2023-12-20T03:25:04;20.70;20.60
22067;DHT22;72821;49.814;19.034;2023-12-20T03:30:06;20.70;20.60
22067;DHT22;72821;49.814;19.034;2023-12-20T03:35:09;20.70;20.60
22067;DHT22;72821;49.814;19.034;2023-12-20T03:40:12;20.70;20.90
22067;DHT22;72821;49.814;19.034;2023-12-20T03:45:14;20.90;20.80
22067;DHT22;72821;49.814;19.034;2023-12-20T03:50:17;20.90;20.90
22067;DHT22;72821;49.814;19.034;2023-12-20T03:55:19;20.90;21.10
22067;DHT22;72821;49.814;19.034;2023-12-20T04:00:21;20.90;21.30
22067;DHT22;72821;49.814;19.034;2023-12-20T04:05:24;20.90;21.70
22067;DHT22;72821;49.814;19.034;2023-12-20T04:10:26;20.80;24.10
22067;DHT22;72821;49.814;19.034;2023-12-20T04:15:28;20.80;24.10
22067;DHT22;72821;49.814;19.034;2023-12-20T04:20:31;20.80;26.70
22067;DHT22;72821;49.814;19.034;2023-12-20T04:25:34;20.80;27.10
22067;DHT22;72821;49.814;19.034;2023-12-20T04:30:36;20.60;30.10
22067;DHT22;72821;49.814;19.034;2023-12-20T04:35:38;20.40;36.00
22067;DHT22;72821;49.814;19.034;2023-12-20T04:40:42;20.10;37.30
22067;DHT22;72821;49.814;19.034;2023-12-20T04:45:44;19.90;39.00
22067;DHT22;72821;49.814;19.034;2023-12-20T04:50:46;19.70;40.20
22067;DHT22;72821;49.814;19.034;2023-12-20T04:55:48;19.40;40.40
22067;DHT22;72821;49.814;19.034;2023-12-20T05:00:50;19.30;44.70
22067;DHT22;72821;49.814;19.034;2023-12-20T05:05:53;19.20;47.00
22067;DHT22;72821;49.814;19.034;2023-12-20T05:10:55;19.20;46.20
22067;DHT22;72821;49.814;19.034;2023-12-20T05:15:57;19.20;47.10
22067;DHT22;72821;49.814;19.034;2023-12-20T05:20:59;19.30;46.80
22067;DHT22;72821;49.814;19.034;2023-12-20T05:26:01;19.40;46.30
22067;DHT22;72821;49.814;19.034;2023-12-20T05:31:04;19.40;46.00
22067;DHT22;72821;49.814;19.034;2023-12-20T05:36:06;19.50;45.10
22067;DHT22;72821;49.814;19.034;2023-12-20T05:41:13;19.60;45.60
22067;DHT22;72821;49.814;19.034;2023-12-20T05:46:15;19.60;47.90
22067;DHT22;72821;49.814;19.034;2023-12-20T05:51:18;19.60;48.90
22067;DHT22;72821;49.814;19.034;2023-12-20T05:56:20;19.50;47.80
22067;DHT22;72821;49.814;19.034;2023-12-20T06:01:22;19.30;50.50
22067;DHT22;72821;49.814;19.034;2023-12-20T06:06:24;19.20;50.70
22067;DHT22;72821;49.814;19.034;2023-12-20T06:11:27;19.10;51.80
22067;DHT22;72821;49.814;19.034;2023-12-20T06:16:33;18.90;51.20
22067;DHT22;72821;49.814;19.034;2023-12-20T06:21:38;18.70;49.30
22067;DHT22;72821;49.814;19.034;2023-12-20T06:26:44;18.10;48.90
22067;DHT22;72821;49.814;19.034;2023-12-20T06:31:46;17.50;51.70
22067;DHT22;72821;49.814;19.034;2023-12-20T06:36:49;17.10;55.50
22067;DHT22;72821;49.814;19.034;2023-12-20T06:41:51;17.00;55.40
22067;DHT22;72821;49.814;19.034;2023-12-20T06:46:53;16.80;54.50
22067;DHT22;72821;49.814;19.034;2023-12-20T06:51:55;16.70;56.40
22067;DHT22;72821;49.814;19.034;2023-12-20T06:56:57;16.70;57.20
22067;DHT22;72821;49.814;19.034;2023-12-20T07:01:59;16.80;56.90
22067;DHT22;72821;49.814;19.034;2023-12-20T07:07:02;16.60;56.10
22067;DHT22;72821;49.814;19.034;2023-12-20T07:12:04;16.30;52.00
22067;DHT22;72821;49.814;19.034;2023-12-20T07:17:07;16.20;52.10
22067;DHT22;72821;49.814;19.034;2023-12-20T07:22:13;16.00;53.90
22067;DHT22;72821;49.814;19.034;2023-12-20T07:27:15;15.90;53.90
22067;DHT22;72821;49.814;19.034;2023-12-20T07:32:18;16.10;55.80
22067;DHT22;72821;49.814;19.034;2023-12-20T07:37:20;15.90;51.50
22067;DHT22;72821;49.814;19.034;2023-12-20T07:42:23;15.80;53.90
22067;DHT22;72821;49.814;19.034;2023-12-20T07:47:25;15.80;55.40
22067;DHT22;72821;49.814;19.034;2023-12-20T07:52:27;16.10;56.00
22067;DHT22;72821;49.814;19.034;2023-12-20T07:57:29;15.90;59.70
22067;DHT22;72821;49.814;19.034;2023-12-20T08:02:32;15.90;60.80
22067;DHT22;72821;49.814;19.034;2023-12-20T08:07:34;15.90;57.70
22067;DHT22;72821;49.814;19.034;2023-12-20T08:12:36;16.00;59.40
22067;DHT22;72821;49.814;19.034;2023-12-20T08:17:38;15.90;57.70
22067;DHT22;72821;49.814;19.034;2023-12-20T08:22:41;15.80;58.10
22067;DHT22;72821;49.814;19.034;2023-12-20T08:27:43;15.40;58.50
22067;DHT22;72821;49.814;19.034;2023-12-20T08:32:46;15.50;63.00
22067;DHT22;72821;49.814;19.034;2023-12-20T08:37:48;16.00;60.60
22067;DHT22;72821;49.814;19.034;2023-12-20T08:42:50;16.20;66.20
22067;DHT22;72821;49.814;19.034;2023-12-20T08:47:52;16.10;62.50
22067;DHT22;72821;49.814;19.034;2023-12-20T08:52:54;16.10;64.80
22067;DHT22;72821;49.814;19.034;2023-12-20T08:57:57;16.20;61.70
22067;DHT22;72821;49.814;19.034;2023-12-20T09:02:59;16.20;61.50
22067;DHT22;72821;49.814;19.034;2023-12-20T09:08:02;16.20;60.40
22067;DHT22;72821;49.814;19.034;2023-12-20T09:13:04;16.00;59.40
22067;DHT22;72821;49.814;19.034;2023-12-20T09:18:06;15.80;61.80
22067;DHT22;72821;49.814;19.034;2023-12-20T09:23:09;15.70;61.60
22067;DHT22;72821;49.814;19.034;2023-12-20T09:28:11;15.60;66.90
22067;DHT22;72821;49.814;19.034;2023-12-20T09:33:14;15.80;58.00
22067;DHT22;72821;49.814;19.034;2023-12-20T09:38:16;15.80;57.70
22067;DHT22;72821;49.814;19.034;2023-12-20T09:58:58;15.40;55.30
22067;DHT22;72821;49.814;19.034;2023-12-20T10:04:06;15.60;57.60
22067;DHT22;72821;49.814;19.034;2023-12-20T10:09:31;15.30;55.20
22067;DHT22;72821;49.814;19.034;2023-12-20T10:14:34;15.20;61.20
22067;DHT22;72821;49.814;19.034;2023-12-20T10:19:37;15.40;55.30
22067;DHT22;72821;49.814;19.034;2023-12-20T10:24:40;15.30;55.00
22067;DHT22;72821;49.814;19.034;2023-12-20T10:29:43;15.20;57.40
22067;DHT22;72821;49.814;19.034;2023-12-20T10:34:46;15.00;54.30
22067;DHT22;72821;49.814;19.034;2023-12-20T10:39:53;14.90;56.80
22067;DHT22;72821;49.814;19.034;2023-12-20T10:44:59;15.10;55.30
22067;DHT22;72821;49.814;19.034;2023-12-20T10:50:05;14.90;53.20
22067;DHT22;72821;49.814;19.034;2023-12-20T10:55:08;14.90;59.20
22067;DHT22;72821;49.814;19.034;2023-12-20T11:00:14;14.90;55.30
22067;DHT22;72821;49.814;19.034;2023-12-20T11:10:47;14.60;56.70
22067;DHT22;72821;49.814;19.034;2023-12-20T11:15:54;14.50;54.60
22067;DHT22;72821;49.814;19.034;2023-12-20T11:21:01;14.40;59.20
22067;DHT22;72821;49.814;19.034;2023-12-20T11:26:05;14.60;62.00
22067;DHT22;72821;49.814;19.034;2023-12-20T11:31:07;14.70;59.00
22067;DHT22;72821;49.814;19.034;2023-12-20T11:36:18;14.90;56.10
22067;DHT22;72821;49.814;19.034;2023-12-20T11:41:23;14.90;58.80
22067;DHT22;72821;49.814;19.034;2023-12-20T11:46:31;15.00;57.60
22067;DHT22;72821;49.814;19.034;2023-12-20T11:51:33;14.90;56.20
22067;DHT22;72821;49.814;19.034;2023-12-20T11:56:36;14.90;58.20
22067;DHT22;72821;49.814;19.034;2023-12-20T12:01:38;15.00;58.40
22067;DHT22;72821;49.814;19.034;2023-12-20T12:06:40;15.00;58.00
22067;DHT22;72821;49.814;19.034;2023-12-20T12:11:43;15.10;56.30
22067;DHT22;72821;49.814;19.034;2023-12-20T12:16:45;15.10;58.00
22067;DHT22;72821;49.814;19.034;2023-12-20T12:21:47;15.20;56.00
22067;DHT22;72821;49.814;19.034;2023-12-20T12:26:50;15.20;54.70
22067;DHT22;72821;49.814;19.034;2023-12-20T12:31:55;15.20;54.80
22067;DHT22;72821;49.814;19.034;2023-12-20T12:36:57;15.10;55.60
22067;DHT22;72821;49.814;19.034;2023-12-20T12:42:00;15.10;57.50
22067;DHT22;72821;49.814;19.034;2023-12-20T12:47:03;15.40;55.10
22067;DHT22;72821;49.814;19.034;2023-12-20T12:52:05;15.70;53.60
22067;DHT22;72821;49.814;19.034;2023-12-20T12:57:08;15.50;53.70
22067;DHT22;72821;49.814;19.034;2023-12-20T13:02:10;16.00;51.50
22067;DHT22;72821;49.814;19.034;2023-12-20T13:07:12;15.90;53.20
22067;DHT22;72821;49.814;19.034;2023-12-20T13:12:15;15.90;55.20
22067;DHT22;72821;49.814;19.034;2023-12-20T13:17:28;16.30;53.90
22067;DHT22;72821;49.814;19.034;2023-12-20T13:22:33;16.50;54.10
22067;DHT22;72821;49.814;19.034;2023-12-20T13:27:35;16.70;52.60
22067;DHT22;72821;49.814;19.034;2023-12-20T13:32:37;16.70;54.30
22067;DHT22;72821;49.814;19.034;2023-12-20T13:37:40;17.00;54.50
22067;DHT22;72821;49.814;19.034;2023-12-20T13:42:42;17.00;52.30
22067;DHT22;72821;49.814;19.034;2023-12-20T13:47:44;16.80;50.50
22067;DHT22;72821;49.814;19.034;2023-12-20T13:52:47;17.00;51.90
22067;DHT22;72821;49.814;19.034;2023-12-20T13:57:49;16.80;49.70
22067;DHT22;72821;49.814;19.034;2023-12-20T14:02:57;16.80;50.00
22067;DHT22;72821;49.814;19.034;2023-12-20T14:08:00;16.50;49.30
22067;DHT22;72821;49.814;19.034;2023-12-20T14:13:02;16.50;50.10
22067;DHT22;72821;49.814;19.034;2023-12-20T14:18:06;16.50;50.30
22067;DHT22;72821;49.814;19.034;2023-12-20T14:23:10;16.50;49.30
22067;DHT22;72821;49.814;19.034;2023-12-20T14:28:12;16.70;47.90
22067;DHT22;72821;49.814;19.034;2023-12-20T14:33:16;16.40;48.50
22067;DHT22;72821;49.814;19.034;2023-12-20T14:38:24;16.20;47.20
22067;DHT22;72821;49.814;19.034;2023-12-20T14:43:27;16.00;47.40
22067;DHT22;72821;49.814;19.034;2023-12-20T14:48:30;15.90;46.20
22067;DHT22;72821;49.814;19.034;2023-12-20T14:53:33;15.80;48.80
22067;DHT22;72821;49.814;19.034;2023-12-20T14:58:38;15.60;46.90
22067;DHT22;72821;49.814;19.034;2023-12-20T15:03:40;15.60;47.30
22067;DHT22;72821;49.814;19.034;2023-12-20T15:08:43;15.60;47.60
22067;DHT22;72821;49.814;19.034;2023-12-20T15:13:45;15.60;46.50
22067;DHT22;72821;49.814;19.034;2023-12-20T15:18:56;15.60;47.00
22067;DHT22;72821;49.814;19.034;2023-12-20T15:23:59;15.70;47.90
22067;DHT22;72821;49.814;19.034;2023-12-20T15:29:08;15.40;46.40
22067;DHT22;72821;49.814;19.034;2023-12-20T15:34:11;15.50;46.80
22067;DHT22;72821;49.814;19.034;2023-12-20T15:39:14;15.60;47.20
22067;DHT22;72821;49.814;19.034;2023-12-20T15:44:16;15.60;46.80
22067;DHT22;72821;49.814;19.034;2023-12-20T15:49:18;15.80;46.70
22067;DHT22;72821;49.814;19.034;2023-12-20T15:54:21;15.90;45.90
22067;DHT22;72821;49.814;19.034;2023-12-20T15:59:25;16.00;45.80
22067;DHT22;72821;49.814;19.034;2023-12-20T16:04:28;16.00;45.30
22067;DHT22;72821;49.814;19.034;2023-12-20T16:09:31;16.10;45.00
22067;DHT22;72821;49.814;19.034;2023-12-20T16:14:33;16.00;43.70
22067;DHT22;72821;49.814;19.034;2023-12-20T16:19:35;15.80;44.10
22067;DHT22;72821;49.814;19.034;2023-12-20T16:24:37;15.80;44.70
22067;DHT22;72821;49.814;19.034;2023-12-20T16:29:41;15.80;44.80
22067;DHT22;72821;49.814;19.034;2023-12-20T16:34:43;15.90;44.80
22067;DHT22;72821;49.814;19.034;2023-12-20T16:39:46;15.90;43.30
22067;DHT22;72821;49.814;19.034;2023-12-20T16:44:49;15.60;43.90
22067;DHT22;72821;49.814;19.034;2023-12-20T16:49:51;15.40;44.10
22067;DHT22;72821;49.814;19.034;2023-12-20T16:54:53;15.40;44.10
22067;DHT22;72821;49.814;19.034;2023-12-20T16:59:59;15.30;42.70
22067;DHT22;72821;49.814;19.034;2023-12-20T17:05:01;15.40;42.80
22067;DHT22;72821;49.814;19.034;2023-12-20T17:10:04;15.60;45.00
22067;DHT22;72821;49.814;19.034;2023-12-20T17:15:06;15.50;43.20
22067;DHT22;72821;49.814;19.034;2023-12-20T17:20:09;15.60;41.00
22067;DHT22;72821;49.814;19.034;2023-12-20T17:25:11;15.80;40.40
22067;DHT22;72821;49.814;19.034;2023-12-20T17:30:14;15.80;39.70
22067;DHT22;72821;49.814;19.034;2023-12-20T17:35:16;15.70;40.00
22067;DHT22;72821;49.814;19.034;2023-12-20T17:40:18;15.60;40.20
22067;DHT22;72821;49.814;19.034;2023-12-20T17:45:21;15.70;40.00
22067;DHT22;72821;49.814;19.034;2023-12-20T17:50:23;16.00;39.30
22067;DHT22;72821;49.814;19.034;2023-12-20T17:55:26;16.20;39.00
22067;DHT22;72821;49.814;19.034;2023-12-20T18:00:33;16.20;38.90
22067;DHT22;72821;49.814;19.034;2023-12-20T18:05:35;16.30;38.60
22067;DHT22;72821;49.814;19.034;2023-12-20T18:10:37;16.30;38.70
22067;DHT22;72821;49.814;19.034;2023-12-20T18:15:40;16.30;38.50
22067;DHT22;72821;49.814;19.034;2023-12-20T18:20:42;16.40;38.10
22067;DHT22;72821;49.814;19.034;2023-12-20T18:25:44;16.30;37.60
22067;DHT22;72821;49.814;19.034;2023-12-20T18:30:47;16.30;37.70
22067;DHT22;72821;49.814;19.034;2023-12-20T18:35:49;16.30;37.80
22067;DHT22;72821;49.814;19.034;2023-12-20T18:40:51;16.60;37.00
22067;DHT22;72821;49.814;19.034;2023-12-20T18:45:53;16.70;36.90
22067;DHT22;72821;49.814;19.034;2023-12-20T18:51:00;16.70;36.60
22067;DHT22;72821;49.814;19.034;2023-12-20T18:56:02;16.50;36.50
22067;DHT22;72821;49.814;19.034;2023-12-20T19:01:05;16.40;37.10
22067;DHT22;72821;49.814;19.034;2023-12-20T19:06:08;16.50;36.60
22067;DHT22;72821;49.814;19.034;2023-12-20T19:11:10;16.40;37.20
22067;DHT22;72821;49.814;19.034;2023-12-20T19:16:12;16.40;37.20
22067;DHT22;72821;49.814;19.034;2023-12-20T19:21:16;16.40;37.10
22067;DHT22;72821;49.814;19.034;2023-12-20T19:26:19;16.60;36.80
22067;DHT22;72821;49.814;19.034;2023-12-20T19:31:22;16.40;36.50
22067;DHT22;72821;49.814;19.034;2023-12-20T19:36:24;16.70;36.30
22067;DHT22;72821;49.814;19.034;2023-12-20T19:41:27;16.70;36.00
22067;DHT22;72821;49.814;19.034;2023-12-20T19:46:29;16.50;35.80
22067;DHT22;72821;49.814;19.034;2023-12-20T19:51:32;16.40;36.20
22067;DHT22;72821;49.814;19.034;2023-12-20T19:56:34;16.10;36.50
22067;DHT22;72821;49.814;19.034;2023-12-20T20:01:36;16.00;36.80
22067;DHT22;72821;49.814;19.034;2023-12-20T20:06:42;16.10;36.80
22067;DHT22;72821;49.814;19.034;2023-12-20T20:11:44;15.90;37.00
22067;DHT22;72821;49.814;19.034;2023-12-20T20:16:46;15.60;37.20
22067;DHT22;72821;49.814;19.034;2023-12-20T20:21:50;15.70;37.50
22067;DHT22;72821;49.814;19.034;2023-12-20T20:26:52;15.70;37.30
22067;DHT22;72821;49.814;19.034;2023-12-20T20:31:54;15.80;37.50
22067;DHT22;72821;49.814;19.034;2023-12-20T20:36:58;15.90;37.00
22067;DHT22;72821;49.814;19.034;2023-12-20T20:42:00;16.10;36.60
22067;DHT22;72821;49.814;19.034;2023-12-20T20:47:03;15.90;37.00
22067;DHT22;72821;49.814;19.034;2023-12-20T20:52:06;15.80;37.20
22067;DHT22;72821;49.814;19.034;2023-12-20T20:57:08;15.70;37.20
22067;DHT22;72821;49.814;19.034;2023-12-20T21:02:10;15.80;37.30
22067;DHT22;72821;49.814;19.034;2023-12-20T21:07:12;15.60;37.30
22067;DHT22;72821;49.814;19.034;2023-12-20T21:12:14;15.60;37.70
22067;DHT22;72821;49.814;19.034;2023-12-20T21:17:16;15.70;37.50
22067;DHT22;72821;49.814;19.034;2023-12-20T21:22:19;15.50;37.90
22067;DHT22;72821;49.814;19.034;2023-12-20T21:27:21;15.60;38.30
22067;DHT22;72821;49.814;19.034;2023-12-20T21:32:24;15.50;38.20
22067;DHT22;72821;49.814;19.034;2023-12-20T21:37:26;15.80;38.00
22067;DHT22;72821;49.814;19.034;2023-12-20T21:42:28;15.70;38.10
22067;DHT22;72821;49.814;19.034;2023-12-20T21:47:48;15.70;37.80
22067;DHT22;72821;49.814;19.034;2023-12-20T21:52:51;16.10;37.60
22067;DHT22;72821;49.814;19.034;2023-12-20T21:57:53;15.90;37.50
22067;DHT22;72821;49.814;19.034;2023-12-20T22:02:56;16.00;37.70
22067;DHT22;72821;49.814;19.034;2023-12-20T22:07:59;16.10;37.50
22067;DHT22;72821;49.814;19.034;2023-12-20T22:13:02;16.00;37.50
22067;DHT22;72821;49.814;19.034;2023-12-20T22:18:04;15.90;38.20
22067;DHT22;72821;49.814;19.034;2023-12-20T22:23:06;16.10;38.00
22067;DHT22;72821;49.814;19.034;2023-12-20T22:28:10;16.10;37.80
22067;DHT22;72821;49.814;19.034;2023-12-20T22:33:12;16.20;37.50
22067;DHT22;72821;49.814;19.034;2023-12-20T22:38:14;16.10;37.80
22067;DHT22;72821;49.814;19.034;2023-12-20T22:43:16;16.10;37.60
22067;DHT22;72821;49.814;19.034;2023-12-20T22:48:18;16.10;37.50
22067;DHT22;72821;49.814;19.034;2023-12-20T22:53:20;16.20;37.80
22067;DHT22;72821;49.814;19.034;2023-12-20T22:58:22;16.50;37.20
22067;DHT22;72821;49.814;19.034;2023-12-20T23:03:25;16.30;37.00
22067;DHT22;72821;49.814;19.034;2023-12-20T23:08:28;16.10;37.50
22067;DHT22;72821;49.814;19.034;2023-12-20T23:13:31;16.00;37.80
22067;DHT22;72821;49.814;19.034;2023-12-20T23:18:33;15.80;38.10
22067;DHT22;72821;49.814;19.034;2023-12-20T23:23:40;15.80;38.20
22067;DHT22;72821;49.814;19.034;2023-12-20T23:28:43;15.60;38.40
22067;DHT22;72821;49.814;19.034;2023-12-20T23:33:45;15.80;38.50
22067;DHT22;72821;49.814;19.034;2023-12-20T23:38:47;15.90;38.50
22067;DHT22;72821;49.814;19.034;2023-12-20T23:43:50;15.90;38.50
22067;DHT22;72821;49.814;19.034;2023-12-20T23:48:52;15.80;38.60
22067;DHT22;72821;49.814;19.034;2023-12-20T23:53:55;15.90;38.70
22067;DHT22;72821;49.814;19.034;2023-12-20T23:58:57;16.10;38.20
